Time;durP1;ratioP1;P1;durP2;ratioP2;P2;SDS_P1;SDS_P2;PMS_P1;PMS_P2;Temp;Humidity;BMP_temperature;BMP_pressure;BME280_temperature;BME280_humidity;BME280_pressure;Samples;Min_cycle;Max_cycle;Signal;HPM_P1;HPM_P2
2021/06/19 00:00:49;;;;;;;7.35;6.65;;;;;;;25.15;54.85;97102.31;5097279;28;20024;-75
2021/06/19 00:03:15;;;;;;;10.23;6.40;;;;;;;25.16;54.75;97095.88;5082863;28;20050;-76
2021/06/19 00:05:41;;;;;;;7.63;6.82;;;;;;;25.23;54.54;97109.38;5068350;28;20038;-75
2021/06/19 00:08:12;;;;;;;8.98;6.47;;;;;;;25.23;54.39;97124.59;5088735;28;20381;-76
2021/06/19 00:10:37;;;;;;;6.70;6.10;;;;;;;25.10;54.82;97126.56;5101386;28;20031;-76
2021/06/19 00:13:05;;;;;;;8.25;5.70;;;;;;;25.03;54.94;97131.69;5114407;28;20036;-75
2021/06/19 00:15:31;;;;;;;7.80;6.05;;;;;;;24.93;55.52;97132.19;5100111;28;20481;-75
2021/06/19 00:17:56;;;;;;;7.50;6.28;;;;;;;24.82;55.47;97132.66;5094723;28;20032;-75
2021/06/19 00:20:24;;;;;;;8.82;7.05;;;;;;;24.72;55.81;97124.38;5052783;28;20029;-76
2021/06/19 00:22:50;;;;;;;9.70;6.70;;;;;;;24.68;56.39;97124.28;5095531;28;20617;-76
2021/06/19 00:25:16;;;;;;;8.00;6.30;;;;;;;24.64;56.50;97131.38;5095470;28;20101;-75
2021/06/19 00:27:42;;;;;;;9.40;6.28;;;;;;;24.57;56.43;97133.84;5072201;28;20043;-75
2021/06/19 00:30:09;;;;;;;8.32;5.95;;;;;;;24.52;56.02;97136.72;5095510;28;20685;-75
2021/06/19 00:32:35;;;;;;;6.53;5.80;;;;;;;24.44;56.60;97133.84;5095306;28;20691;-76
2021/06/19 00:35:01;;;;;;;7.80;6.13;;;;;;;24.46;56.47;97134.28;5088741;28;20102;-76
2021/06/19 00:37:26;;;;;;;7.82;5.95;;;;;;;24.42;56.79;97136.09;5078724;28;20027;-76
2021/06/19 00:39:51;;;;;;;8.93;5.90;;;;;;;24.42;56.66;97135.28;5096148;28;20185;-76
2021/06/19 00:42:20;;;;;;;8.75;6.57;;;;;;;24.30;57.24;97138.78;5095318;28;20036;-76
2021/06/19 00:44:46;;;;;;;9.02;7.35;;;;;;;24.46;57.35;97136.19;5095483;28;20032;-76
2021/06/19 00:47:12;;;;;;;8.50;7.70;;;;;;;24.47;57.02;97143.84;5076772;28;20035;-76
2021/06/19 00:49:37;;;;;;;7.75;6.53;;;;;;;24.48;56.59;97145.38;5075433;28;20063;-76
2021/06/19 00:52:03;;;;;;;7.10;6.40;;;;;;;24.51;56.62;97145.84;5094910;28;20118;-75
2021/06/19 00:54:29;;;;;;;7.78;6.43;;;;;;;24.47;56.91;97154.47;5095553;28;20032;-76
2021/06/19 00:56:54;;;;;;;6.90;6.20;;;;;;;24.37;57.20;97144.31;5113336;28;20023;-75
2021/06/19 00:59:20;;;;;;;7.88;6.53;;;;;;;24.36;57.42;97142.75;5083638;28;20036;-75
2021/06/19 01:01:45;;;;;;;8.43;6.20;;;;;;;24.31;56.84;97145.63;5070178;28;20057;-75
2021/06/19 01:04:10;;;;;;;7.13;6.43;;;;;;;24.25;57.23;97137.09;5116387;22;20083;-79
2021/06/19 01:06:36;;;;;;;7.70;6.78;;;;;;;24.26;56.98;97146.63;5070475;28;20081;-79
2021/06/19 01:09:07;;;;;;;7.07;6.38;;;;;;;24.09;56.84;97138.88;5076247;28;20541;-78
2021/06/19 01:11:33;;;;;;;8.80;6.60;;;;;;;24.16;56.91;97135.66;5055727;28;20024;-78
2021/06/19 01:13:59;;;;;;;9.77;6.00;;;;;;;24.12;56.84;97132.91;5059191;28;20131;-78
2021/06/19 01:16:25;;;;;;;7.40;6.60;;;;;;;24.16;57.03;97147.06;5075793;28;20057;-79
2021/06/19 01:18:50;;;;;;;8.32;7.35;;;;;;;24.12;57.30;97141.66;5075766;28;20206;-79
2021/06/19 01:21:17;;;;;;;7.88;6.68;;;;;;;24.03;57.67;97153.53;5092490;28;20040;-79
2021/06/19 01:23:43;;;;;;;13.15;7.22;;;;;;;24.05;57.83;97149.41;5072942;28;20488;-79
2021/06/19 01:26:11;;;;;;;9.05;7.25;;;;;;;24.03;58.03;97156.97;5058901;28;20085;-79
2021/06/19 01:28:36;;;;;;;7.95;6.53;;;;;;;24.00;57.93;97159.50;5067218;28;20046;-79
2021/06/19 01:31:02;;;;;;;7.13;6.10;;;;;;;24.00;58.28;97157.63;5059301;28;20040;-79
2021/06/19 01:33:28;;;;;;;7.43;6.70;;;;;;;24.01;57.65;97158.38;5075224;28;20036;-79
2021/06/19 01:35:54;;;;;;;10.63;6.95;;;;;;;23.97;58.36;97155.63;5039409;28;20025;-78
2021/06/19 01:38:21;;;;;;;6.80;5.88;;;;;;;23.99;58.11;97156.09;5056628;28;20871;-79
2021/06/19 01:40:48;;;;;;;7.88;6.18;;;;;;;23.99;58.30;97158.75;5075849;28;20078;-79
2021/06/19 01:43:15;;;;;;;8.65;6.28;;;;;;;23.95;58.10;97155.19;5061446;28;20060;-79
2021/06/19 01:45:41;;;;;;;7.15;6.30;;;;;;;23.97;58.20;97152.19;5075668;28;20506;-79
2021/06/19 01:48:08;;;;;;;7.47;5.97;;;;;;;23.98;58.29;97159.06;5093939;28;20026;-79
2021/06/19 01:50:34;;;;;;;7.18;6.32;;;;;;;23.93;58.26;97160.06;5075930;28;20069;-79
2021/06/19 01:53:01;;;;;;;8.50;6.63;;;;;;;23.88;58.54;97161.03;5041574;28;20425;-78
2021/06/19 01:55:26;;;;;;;7.80;6.53;;;;;;;23.85;58.39;97159.03;5075592;28;20043;-79
2021/06/19 01:57:56;;;;;;;8.38;6.32;;;;;;;23.75;58.40;97157.59;5057668;28;20470;-78
2021/06/19 02:00:27;;;;;;;11.57;6.40;;;;;;;23.77;58.69;97148.47;5035445;28;20536;-78
2021/06/19 02:02:53;;;;;;;7.75;6.93;;;;;;;23.82;58.47;97135.00;5042256;28;20490;-79
2021/06/19 02:05:19;;;;;;;7.10;5.72;;;;;;;23.85;58.04;97139.66;5053926;28;20048;-79
2021/06/19 02:07:56;;;;;;;9.27;6.45;;;;;;;23.74;58.46;97133.97;5075186;28;20433;-79
2021/06/19 02:10:24;;;;;;;9.23;6.50;;;;;;;23.80;57.78;97132.63;5059074;28;20032;-79
2021/06/19 02:12:50;;;;;;;9.93;7.65;;;;;;;23.75;57.91;97123.03;5052473;28;20518;-79
2021/06/19 02:15:18;;;;;;;7.70;6.30;;;;;;;23.65;57.94;97128.78;5058128;28;20153;-79
2021/06/19 02:17:46;;;;;;;7.22;6.53;;;;;;;23.64;58.11;97127.22;5061659;28;20464;-78
2021/06/19 02:20:13;;;;;;;8.10;6.70;;;;;;;23.54;58.30;97117.00;5051361;28;20069;-79
2021/06/19 02:22:39;;;;;;;8.20;6.38;;;;;;;23.61;58.15;97130.53;5035015;28;20471;-78
2021/06/19 02:25:10;;;;;;;8.88;6.60;;;;;;;23.45;58.76;97129.63;5057643;28;20028;-79
2021/06/19 02:27:36;;;;;;;7.25;5.68;;;;;;;23.51;59.05;97120.31;5087837;28;20535;-78
2021/06/19 02:30:03;;;;;;;11.48;6.30;;;;;;;23.52;58.83;97125.31;5037848;28;20036;-79
2021/06/19 02:32:28;;;;;;;7.50;5.75;;;;;;;23.48;59.11;97124.44;5057613;28;20044;-78
2021/06/19 02:34:54;;;;;;;9.35;7.25;;;;;;;23.47;59.30;97127.41;5052828;28;20103;-79
2021/06/19 02:37:19;;;;;;;7.45;5.78;;;;;;;23.46;59.22;97125.84;5041949;28;20670;-79
2021/06/19 02:39:45;;;;;;;7.60;6.43;;;;;;;23.41;59.18;97121.53;5074972;28;20028;-79
2021/06/19 02:42:11;;;;;;;9.32;7.20;;;;;;;23.33;59.23;97120.50;5056243;28;20079;-79
2021/06/19 02:44:36;;;;;;;8.55;6.72;;;;;;;23.35;59.33;97128.16;5056135;28;20949;-79
2021/06/19 02:47:02;;;;;;;10.68;7.38;;;;;;;23.32;59.07;97134.13;5051811;28;20035;-79
2021/06/19 02:49:29;;;;;;;8.13;6.35;;;;;;;23.17;59.07;97123.03;5057731;28;20036;-79
2021/06/19 02:51:55;;;;;;;6.50;5.80;;;;;;;23.23;59.37;97136.88;5055034;28;20032;-78
2021/06/19 02:54:20;;;;;;;6.82;6.05;;;;;;;23.15;59.40;97129.75;5037911;28;20066;-78
2021/06/19 02:56:45;;;;;;;7.38;5.90;;;;;;;23.14;59.36;97138.84;5057860;28;20024;-79
2021/06/19 02:59:11;;;;;;;6.60;5.90;;;;;;;23.15;59.25;97145.69;5040665;28;20024;-79
2021/06/19 03:01:36;;;;;;;7.60;6.28;;;;;;;23.06;59.97;97142.34;5028527;28;20068;-79
2021/06/19 03:04:01;;;;;;;6.90;6.22;;;;;;;;;;5073227;28;20382;-78
2021/06/19 03:06:27;;;;;;;8.30;6.38;;;;;;;23.05;59.63;97146.06;5073236;28;20031;-79
2021/06/19 03:08:52;;;;;;;6.78;5.78;;;;;;;23.00;59.63;97145.19;5074510;28;20442;-78
2021/06/19 03:11:20;;;;;;;8.55;6.15;;;;;;;23.00;59.45;97139.88;5054179;28;20032;-79
2021/06/19 03:13:45;;;;;;;9.07;6.00;;;;;;;22.99;59.75;97133.00;5090113;28;20547;-79
2021/06/19 03:16:11;;;;;;;8.90;6.22;;;;;;;22.91;60.03;97141.03;5074401;28;20039;-78
2021/06/19 03:18:36;;;;;;;7.88;6.25;;;;;;;22.96;60.27;97151.47;5073719;28;20059;-78
2021/06/19 03:21:01;;;;;;;6.35;5.75;;;;;;;22.93;60.62;97160.09;5073860;28;20093;-79
2021/06/19 03:23:27;;;;;;;6.90;6.22;;;;;;;22.91;60.62;97157.75;5057414;28;20120;-78
2021/06/19 03:25:52;;;;;;;7.72;5.88;;;;;;;22.81;60.80;97153.63;5073407;28;20040;-78
2021/06/19 03:28:17;;;;;;;9.13;6.35;;;;;;;22.81;60.32;97158.16;5090761;28;20546;-78
2021/06/19 03:30:45;;;;;;;7.40;6.25;;;;;;;22.78;60.76;97166.78;5057028;28;20402;-79
2021/06/19 03:33:12;;;;;;;8.40;6.38;;;;;;;22.78;60.80;97172.06;5073762;28;20032;-78
2021/06/19 03:35:38;;;;;;;11.13;6.15;;;;;;;22.79;60.94;97182.38;5056742;28;20036;-78
2021/06/19 03:38:05;;;;;;;7.47;6.50;;;;;;;22.77;60.84;97173.97;5073534;28;20462;-77
2021/06/19 03:40:31;;;;;;;8.43;6.72;;;;;;;22.78;60.59;97180.81;5054484;28;20036;-77
2021/06/19 03:42:57;;;;;;;7.18;6.20;;;;;;;22.76;60.57;97171.63;5088990;28;20035;-77
2021/06/19 03:45:25;;;;;;;7.10;5.60;;;;;;;22.78;60.57;97175.50;5054345;28;20024;-77
2021/06/19 03:47:53;;;;;;;6.88;5.75;;;;;;;22.84;60.68;97177.97;5054578;28;20032;-77
2021/06/19 03:50:20;;;;;;;7.20;5.75;;;;;;;22.84;60.57;97181.38;5056849;28;20120;-77
2021/06/19 03:52:45;;;;;;;6.60;5.90;;;;;;;22.83;60.61;97181.72;5053908;28;20074;-77
2021/06/19 03:55:14;;;;;;;7.15;5.70;;;;;;;22.87;60.58;97194.00;5053660;28;20028;-77
2021/06/19 03:57:40;;;;;;;7.60;5.60;;;;;;;22.88;60.48;97184.97;5043384;28;20016;-77
2021/06/19 04:00:08;;;;;;;5.95;5.35;;;;;;;22.89;60.42;97186.50;5036868;28;20107;-77
2021/06/19 04:02:34;;;;;;;6.15;5.28;;;;;;;23.00;60.27;97194.88;5053234;28;20033;-77
2021/06/19 04:04:59;;;;;;;6.40;5.60;;;;;;;22.99;60.30;97196.72;5048390;28;20034;-77
2021/06/19 04:07:25;;;;;;;7.93;5.72;;;;;;;23.04;60.60;97203.72;5054511;28;20035;-77
2021/06/19 04:09:52;;;;;;;6.25;5.43;;;;;;;23.14;60.00;97207.91;5036252;28;20229;-77
2021/06/19 04:12:18;;;;;;;5.75;4.88;;;;;;;23.21;60.33;97202.84;5068489;28;20111;-77
2021/06/19 04:14:45;;;;;;;7.68;5.63;;;;;;;23.18;59.62;97191.00;5071613;28;20071;-77
2021/06/19 04:17:11;;;;;;;6.95;5.32;;;;;;;23.29;59.61;97191.38;5072908;28;20044;-77
2021/06/19 04:19:37;;;;;;;6.40;5.40;;;;;;;23.31;58.93;97191.81;5072654;28;20032;-77
2021/06/19 04:22:04;;;;;;;5.47;4.53;;;;;;;23.41;59.22;97189.84;5073021;28;20028;-77
2021/06/19 04:24:29;;;;;;;7.25;5.55;;;;;;;23.47;58.64;97193.84;5071909;28;20026;-77
2021/06/19 04:26:54;;;;;;;6.20;4.63;;;;;;;23.58;58.51;97202.16;5082577;28;20374;-78
2021/06/19 04:29:20;;;;;;;6.93;4.60;;;;;;;23.67;58.25;97208.97;5050682;28;20035;-77
2021/06/19 04:31:45;;;;;;;5.00;4.18;;;;;;;23.74;57.68;97201.22;5056465;28;20036;-77
2021/06/19 04:34:13;;;;;;;6.18;4.68;;;;;;;23.64;57.57;97204.28;5068211;28;20527;-77
2021/06/19 04:36:39;;;;;;;6.30;4.63;;;;;;;23.80;57.63;97208.97;5050276;28;20040;-76
2021/06/19 04:39:04;;;;;;;7.43;5.40;;;;;;;23.83;57.30;97211.00;5053507;28;20020;-77
2021/06/19 04:41:36;;;;;;;5.88;5.05;;;;;;;23.77;57.48;97210.44;5039963;28;20067;-77
2021/06/19 04:46:27;;;;;;;5.38;4.85;;;;;;;23.91;57.61;97218.13;5072344;28;20127;-77
2021/06/19 04:48:52;;;;;;;8.20;4.93;;;;;;;24.02;57.11;97219.22;5039223;28;20024;-77
2021/06/19 04:51:18;;;;;;;4.80;4.30;;;;;;;24.10;56.70;97218.34;5055717;28;20090;-77
2021/06/19 04:53:43;;;;;;;6.22;4.72;;;;;;;24.18;56.72;97230.00;5058090;28;20027;-77
2021/06/19 04:56:09;;;;;;;6.38;4.07;;;;;;;24.23;56.84;97234.31;5094733;28;20073;-77
2021/06/19 04:58:35;;;;;;;5.90;5.13;;;;;;;24.34;56.54;97227.47;5076751;28;20028;-77
2021/06/19 05:01:01;;;;;;;5.18;4.45;;;;;;;24.34;56.13;97221.38;5058412;28;20222;-77
2021/06/19 05:03:26;;;;;;;5.28;4.80;;;;;;;24.45;56.03;97231.22;5074739;28;20447;-77
2021/06/19 05:05:51;;;;;;;4.78;4.05;;;;;;;24.55;55.45;97227.34;5044552;28;20075;-77
2021/06/19 05:08:17;;;;;;;6.40;3.85;;;;;;;24.65;54.98;97234.88;5058811;28;20024;-77
2021/06/19 05:10:43;;;;;;;4.63;4.13;;;;;;;24.76;54.73;97226.44;5052570;28;20039;-77
2021/06/19 05:13:08;;;;;;;4.65;4.25;;;;;;;24.75;54.40;97231.00;5058412;28;20582;-77
2021/06/19 05:15:34;;;;;;;4.32;3.60;;;;;;;24.89;53.94;97224.53;5075336;28;20036;-77
2021/06/19 05:17:59;;;;;;;3.30;3.00;;;;;;;24.98;53.85;97225.16;5059051;28;20099;-78
2021/06/19 05:20:27;;;;;;;4.00;3.60;;;;;;;25.09;54.17;97228.13;5075397;28;20024;-77
2021/06/19 05:22:53;;;;;;;4.72;3.55;;;;;;;25.20;52.89;97229.22;5042015;28;20032;-78
2021/06/19 05:25:18;;;;;;;4.78;3.83;;;;;;;25.18;53.30;97226.88;5075943;28;20030;-78
2021/06/19 05:27:43;;;;;;;4.03;3.58;;;;;;;25.22;53.58;97234.97;5055588;28;20474;-78
2021/06/19 05:30:11;;;;;;;5.07;3.67;;;;;;;25.29;53.65;97235.19;5074223;28;20032;-78
2021/06/19 05:32:36;;;;;;;5.47;3.60;;;;;;;25.44;52.43;97225.69;5075568;28;20028;-77
2021/06/19 05:35:02;;;;;;;4.28;3.40;;;;;;;25.55;52.44;97224.09;5075415;28;20111;-78
2021/06/19 05:37:28;;;;;;;5.65;3.53;;;;;;;25.48;52.30;97223.91;5042048;28;20475;-77
2021/06/19 05:39:54;;;;;;;3.45;3.15;;;;;;;25.52;52.15;97224.78;5055485;28;20036;-78
2021/06/19 05:42:20;;;;;;;4.88;3.42;;;;;;;25.57;51.85;97219.19;5055962;28;20034;-78
2021/06/19 05:44:46;;;;;;;3.35;3.05;;;;;;;25.79;51.47;97220.50;5041870;28;20036;-78
2021/06/19 05:47:11;;;;;;;3.83;3.17;;;;;;;25.94;50.98;97227.03;5058479;28;20505;-78
2021/06/19 05:49:37;;;;;;;3.90;3.30;;;;;;;25.94;51.20;97235.03;5035124;28;20078;-78
2021/06/19 05:52:03;;;;;;;4.40;3.13;;;;;;;25.97;51.06;97228.97;5093206;28;20036;-78
2021/06/19 05:54:29;;;;;;;3.88;3.50;;;;;;;26.18;50.95;97219.94;5040331;28;20043;-78
2021/06/19 05:56:55;;;;;;;4.45;3.35;;;;;;;26.27;50.55;97222.41;5056720;28;20024;-78
2021/06/19 05:59:20;;;;;;;4.32;3.17;;;;;;;26.41;50.01;97219.28;5054470;28;20490;-77
2021/06/19 06:01:46;;;;;;;4.40;3.50;;;;;;;26.59;48.94;97217.81;5048630;28;20028;-78
2021/06/19 06:04:11;;;;;;;4.70;3.38;;;;;;;26.70;48.99;97213.50;5055686;28;20123;-78
2021/06/19 06:06:37;;;;;;;3.40;3.10;;;;;;;26.83;48.70;97208.03;5064976;28;20119;-77
2021/06/19 06:09:04;;;;;;;3.47;3.20;;;;;;;27.02;48.15;97208.03;5044254;28;20025;-78
2021/06/19 06:11:29;;;;;;;5.65;3.30;;;;;;;27.18;47.79;97217.88;5040355;28;20035;-78
2021/06/19 06:13:55;;;;;;;3.60;3.30;;;;;;;27.37;47.97;97212.56;5074229;28;20024;-78
2021/06/19 06:16:22;;;;;;;4.20;3.50;;;;;;;27.52;47.31;97202.09;5074599;28;20065;-78
2021/06/19 06:18:47;;;;;;;3.80;3.08;;;;;;;27.70;46.29;97213.91;5074687;28;20028;-78
2021/06/19 06:21:12;;;;;;;2.85;2.53;;;;;;;27.88;45.79;97208.88;5074814;28;20023;-80
2021/06/19 06:23:38;;;;;;;3.45;2.88;;;;;;;27.95;45.14;97217.03;5074166;28;20028;-78
2021/06/19 06:26:03;;;;;;;4.53;3.45;;;;;;;28.14;44.93;97216.19;5057949;28;20028;-78
2021/06/19 06:28:29;;;;;;;3.03;2.67;;;;;;;28.48;45.47;97221.66;5040559;28;20110;-78
2021/06/19 06:30:55;;;;;;;4.20;3.80;;;;;;;28.78;44.37;97223.63;5071750;28;20101;-78
2021/06/19 06:33:22;;;;;;;4.15;3.53;;;;;;;28.93;43.29;97232.63;5092396;28;20036;-78
2021/06/19 06:35:47;;;;;;;3.65;3.33;;;;;;;28.82;43.83;97221.75;5074552;28;20539;-78
2021/06/19 06:38:13;;;;;;;6.25;3.97;;;;;;;28.99;43.47;97231.13;5054720;28;20021;-78
2021/06/19 06:40:38;;;;;;;3.20;2.90;;;;;;;29.14;42.82;97234.78;5054523;28;20080;-78
2021/06/19 06:43:04;;;;;;;3.10;2.30;;;;;;;29.20;42.95;97233.34;5040332;28;20429;-78
2021/06/19 06:45:30;;;;;;;3.70;3.40;;;;;;;29.08;43.35;97231.66;5074128;28;20038;-78
2021/06/19 06:47:57;;;;;;;2.80;2.60;;;;;;;29.50;43.08;97233.28;5057644;28;20070;-78
2021/06/19 06:50:23;;;;;;;5.07;3.35;;;;;;;29.65;42.64;97231.50;5055938;28;20033;-78
2021/06/19 06:52:48;;;;;;;4.13;3.47;;;;;;;29.96;41.24;97229.50;5073488;28;20378;-78
2021/06/19 06:55:14;;;;;;;3.70;2.80;;;;;;;30.12;41.20;97234.63;5057630;28;20028;-78
2021/06/19 06:57:39;;;;;;;3.50;3.10;;;;;;;30.14;41.02;97236.94;5074247;28;20020;-78
2021/06/19 07:00:06;;;;;;;3.35;3.05;;;;;;;30.34;41.12;97234.78;5073991;28;20101;-78
2021/06/19 07:02:32;;;;;;;3.22;2.92;;;;;;;30.49;40.16;97241.81;5051419;28;20035;-78
2021/06/19 07:04:57;;;;;;;3.67;2.88;;;;;;;30.38;40.93;97230.22;5055909;28;20032;-78
2021/06/19 07:07:23;;;;;;;3.90;3.10;;;;;;;30.57;39.97;97223.81;5073425;28;20454;-78
2021/06/19 07:09:48;;;;;;;3.92;3.50;;;;;;;30.72;39.38;97225.44;5070466;28;20063;-79
2021/06/19 07:12:14;;;;;;;2.83;2.53;;;;;;;31.03;38.59;97226.00;5040562;28;20027;-78
2021/06/19 07:14:39;;;;;;;3.03;2.83;;;;;;;31.09;38.64;97227.16;5073155;28;20042;-78
2021/06/19 07:17:09;;;;;;;4.07;3.05;;;;;;;31.04;38.90;97226.78;5083806;28;20024;-78
2021/06/19 07:19:35;;;;;;;2.95;2.47;;;;;;;31.45;38.70;97235.34;5054872;28;20032;-78
2021/06/19 07:22:00;;;;;;;3.28;2.88;;;;;;;31.47;37.74;97233.03;5056532;28;20099;-78
2021/06/19 07:24:26;;;;;;;3.05;2.75;;;;;;;31.78;36.97;97235.44;5040300;28;20123;-78
2021/06/19 07:26:51;;;;;;;2.83;2.55;;;;;;;31.97;35.57;97243.13;5037014;28;20036;-78
2021/06/19 07:29:17;;;;;;;2.90;2.70;;;;;;;32.01;35.90;97243.13;5072107;28;20028;-78
2021/06/19 07:31:42;;;;;;;3.10;2.90;;;;;;;32.16;35.64;97233.91;5073143;28;20048;-78
2021/06/19 07:34:07;;;;;;;3.10;2.38;;;;;;;31.85;36.60;97248.91;5050064;28;20131;-78
2021/06/19 07:36:33;;;;;;;3.10;2.40;;;;;;;32.09;35.48;97245.47;5056813;28;20032;-78
2021/06/19 07:38:59;;;;;;;3.25;2.60;;;;;;;32.05;36.16;97249.31;5043628;28;20457;-78
2021/06/19 07:41:25;;;;;;;2.63;2.28;;;;;;;32.14;35.71;97247.00;5073464;28;20119;-78
2021/06/19 07:43:50;;;;;;;3.20;2.58;;;;;;;32.48;35.18;97243.91;5039201;28;20065;-79
2021/06/19 07:46:16;;;;;;;2.25;2.13;;;;;;;32.75;33.78;97241.56;5038676;28;20499;-79
2021/06/19 07:48:41;;;;;;;4.47;2.40;;;;;;;32.90;33.71;97244.19;5055589;28;20074;-78
2021/06/19 07:51:07;;;;;;;2.60;2.30;;;;;;;32.95;34.17;97243.78;5039730;28;20431;-79
2021/06/19 07:53:32;;;;;;;2.95;2.75;;;;;;;33.22;33.53;97233.31;5053913;28;20094;-78
2021/06/19 07:55:57;;;;;;;3.70;2.65;;;;;;;33.24;33.76;97238.31;5051167;28;20367;-78
2021/06/19 07:58:23;;;;;;;2.83;2.33;;;;;;;33.29;33.22;97230.56;5054386;28;20063;-79
2021/06/19 08:00:48;;;;;;;2.45;2.25;;;;;;;33.41;32.27;97232.81;5089972;28;20035;-78
2021/06/19 08:03:14;;;;;;;2.67;2.22;;;;;;;33.19;34.01;97234.09;5043578;28;20160;-78
2021/06/19 08:05:39;;;;;;;2.60;2.40;;;;;;;33.39;34.69;97231.69;5071391;28;20139;-78
2021/06/19 08:08:06;;;;;;;3.28;2.10;;;;;;;33.67;33.01;97225.34;5071236;28;20024;-78
2021/06/19 08:10:34;;;;;;;3.00;2.80;;;;;;;33.34;34.07;97222.06;5056910;28;20064;-78
2021/06/19 08:13:00;;;;;;;2.53;2.28;;;;;;;33.25;34.48;97216.34;5072286;28;20027;-78
2021/06/19 08:15:26;;;;;;;2.70;2.50;;;;;;;33.78;33.32;97217.19;5056290;28;20028;-78
2021/06/19 08:17:52;;;;;;;2.53;2.33;;;;;;;34.05;31.55;97211.16;5072665;28;20611;-78
2021/06/19 08:20:18;;;;;;;3.00;2.70;;;;;;;34.17;31.68;97209.91;5072486;28;20116;-78
2021/06/19 08:22:44;;;;;;;3.67;2.40;;;;;;;34.08;32.75;97203.03;5036234;28;20455;-78
2021/06/19 08:25:11;;;;;;;3.40;2.80;;;;;;;33.97;32.71;97194.25;5070969;28;20516;-78
2021/06/19 08:27:38;;;;;;;2.60;2.40;;;;;;;34.38;31.40;97200.84;5052964;28;20378;-79
2021/06/19 08:30:06;;;;;;;2.60;2.40;;;;;;;34.62;30.23;97205.22;5073849;28;20115;-78
2021/06/19 08:32:35;;;;;;;3.13;2.05;;;;;;;34.76;30.97;97198.91;5059652;28;20716;-78
2021/06/19 08:35:04;;;;;;;4.35;2.85;;;;;;;34.22;32.14;97193.28;5056806;28;20039;-78
2021/06/19 08:37:30;;;;;;;3.22;2.45;;;;;;;34.29;31.29;97185.09;5076954;28;20048;-78
2021/06/19 08:39:57;;;;;;;3.42;3.00;;;;;;;34.93;29.33;97177.47;5076382;28;20084;-78
2021/06/19 08:42:24;;;;;;;2.30;2.20;;;;;;;34.62;31.44;97185.53;5074125;28;20042;-78
2021/06/19 08:44:51;;;;;;;3.45;2.50;;;;;;;35.05;29.33;97179.63;5053496;28;20505;-78
2021/06/19 08:47:16;;;;;;;2.65;2.45;;;;;;;35.00;29.54;97180.06;5060268;28;20669;-78
2021/06/19 08:49:42;;;;;;;4.88;2.80;;;;;;;34.87;30.53;97175.22;5056149;28;20090;-81
2021/06/19 08:52:08;;;;;;;3.10;2.83;;;;;;;34.93;30.33;97172.06;5056480;28;20025;-79
2021/06/19 08:54:40;;;;;;;3.58;3.13;;;;;;;35.20;29.65;97164.72;5055697;28;20016;-78
2021/06/19 08:57:13;;;;;;;3.50;2.67;;;;;;;35.60;28.93;97175.75;5060203;28;20028;-79
2021/06/19 08:59:39;;;;;;;3.77;2.70;;;;;;;35.76;28.93;97160.81;5059862;28;20122;-79
2021/06/19 09:02:08;;;;;;;4.18;3.10;;;;;;;35.53;29.22;97158.84;5041839;28;20442;-79
2021/06/19 09:05:06;;;;;;;3.47;3.00;;;;;;;36.06;28.20;97159.16;5053295;28;20044;-79
2021/06/19 09:07:40;;;;;;;3.90;2.60;;;;;;;36.33;27.31;97159.84;5047970;28;20043;-80
2021/06/19 09:10:25;;;;;;;4.47;3.15;;;;;;;36.19;27.81;97151.94;5052576;28;20037;-79
2021/06/19 09:12:54;;;;;;;3.10;2.90;;;;;;;35.95;28.03;97151.22;5075930;28;20021;-78
2021/06/19 09:15:19;;;;;;;4.60;3.00;;;;;;;35.47;29.55;97153.13;5058693;28;20036;-79
2021/06/19 09:18:13;;;;;;;5.20;3.05;;;;;;;35.27;29.81;97128.69;5075845;28;20021;-79
2021/06/19 09:20:46;;;;;;;3.28;2.95;;;;;;;35.52;30.21;97128.28;5037238;28;20040;-78
2021/06/19 09:23:12;;;;;;;4.15;2.95;;;;;;;35.70;30.27;97132.66;5075508;28;20038;-78
2021/06/19 09:25:38;;;;;;;4.55;3.53;;;;;;;35.80;30.21;97126.31;5075568;28;20063;-78
2021/06/19 09:28:06;;;;;;;3.53;3.10;;;;;;;36.12;29.58;97114.13;5075798;28;20578;-78
2021/06/19 09:30:31;;;;;;;4.78;3.25;;;;;;;36.50;30.08;97114.56;5075978;28;20113;-78
2021/06/19 09:33:02;;;;;;;4.90;3.72;;;;;;;35.89;28.40;97107.56;5093825;28;20128;-79
2021/06/19 09:35:32;;;;;;;3.65;3.33;;;;;;;36.68;27.74;97097.16;5058654;28;20034;-79
2021/06/19 09:38:04;;;;;;;5.15;4.00;;;;;;;36.42;28.84;97088.03;5047448;28;20024;-79
2021/06/19 09:40:40;;;;;;;4.00;3.70;;;;;;;36.14;29.38;97090.06;5056088;28;20051;-79
2021/06/19 09:43:10;;;;;;;4.40;4.07;;;;;;;36.44;29.50;97077.53;5074953;28;20533;-79
2021/06/19 09:45:36;;;;;;;3.83;3.53;;;;;;;36.62;29.28;97075.19;5075580;28;20036;-79
2021/06/19 09:48:02;;;;;;;4.38;3.97;;;;;;;36.71;28.43;97075.41;5075550;28;20063;-79
2021/06/19 09:50:28;;;;;;;4.82;4.35;;;;;;;37.29;28.19;97077.59;5075243;28;20170;-78
2021/06/19 09:52:53;;;;;;;4.13;3.45;;;;;;;37.82;26.98;97074.75;5074756;28;20059;-78
2021/06/19 09:55:20;;;;;;;4.57;4.18;;;;;;;37.39;27.05;97064.19;5074891;28;20565;-78
2021/06/19 09:57:47;;;;;;;4.35;3.92;;;;;;;37.46;27.11;97067.50;5041509;28;20025;-79
2021/06/19 10:00:14;;;;;;;5.38;3.72;;;;;;;37.43;28.42;97067.59;5038979;28;20032;-79
2021/06/19 10:02:39;;;;;;;4.10;3.72;;;;;;;36.14;28.60;97071.88;5058149;28;20039;-78
2021/06/19 10:05:05;;;;;;;4.70;3.92;;;;;;;36.81;29.18;97064.72;5073992;28;20036;-78
2021/06/19 10:07:33;;;;;;;6.65;4.30;;;;;;;36.99;28.33;97064.34;5054838;28;20071;-80
2021/06/19 10:10:16;;;;;;;5.78;4.50;;;;;;;36.91;28.95;97061.00;5063709;28;20032;-79
2021/06/19 10:12:42;;;;;;;7.10;4.30;;;;;;;37.41;27.23;97057.13;5058569;28;20040;-79
2021/06/19 10:15:07;;;;;;;5.72;5.15;;;;;;;38.26;27.64;97073.59;5075460;28;20024;-78
2021/06/19 10:17:42;;;;;;;7.28;4.93;;;;;;;38.51;26.74;97067.44;5058315;28;20044;-79
2021/06/19 10:20:15;;;;;;;5.95;4.40;;;;;;;38.55;26.96;97068.09;5041361;28;20060;-79
2021/06/19 10:22:42;;;;;;;9.30;5.05;;;;;;;37.92;26.51;97055.84;5062179;28;20601;-79
2021/06/19 10:25:12;;;;;;;6.07;4.25;;;;;;;38.09;26.98;97051.13;5053709;28;20471;-79
2021/06/19 10:27:47;;;;;;;5.72;4.53;;;;;;;38.24;26.12;97063.16;5056427;28;20399;-78
2021/06/19 10:30:15;;;;;;;5.70;4.40;;;;;;;38.45;26.91;97067.19;5057897;28;20032;-78
2021/06/19 10:32:49;;;;;;;8.85;5.50;;;;;;;38.68;27.58;97052.56;5055507;28;20684;-78
2021/06/19 10:35:19;;;;;;;6.30;4.10;;;;;;;38.27;27.21;97050.63;5055186;28;20060;-78
2021/06/19 10:37:47;;;;;;;4.65;4.25;;;;;;;38.85;26.67;97055.16;5055473;28;20631;-78
2021/06/19 10:40:17;;;;;;;4.93;4.35;;;;;;;38.38;27.20;97061.97;5056056;28;20036;-79
2021/06/19 10:42:44;;;;;;;4.88;4.13;;;;;;;38.50;26.72;97053.06;5045963;28;20036;-78
2021/06/19 10:45:28;;;;;;;4.78;4.00;;;;;;;38.54;25.92;97053.72;5053727;28;20493;-79
2021/06/19 10:48:06;;;;;;;5.03;4.32;;;;;;;38.96;27.48;97053.63;5035633;28;20368;-78
2021/06/19 10:50:34;;;;;;;5.20;4.63;;;;;;;39.57;24.69;97042.00;5057176;28;20528;-79
2021/06/19 10:53:19;;;;;;;6.78;4.43;;;;;;;39.09;25.90;97034.59;5053203;28;20093;-80
2021/06/19 10:55:44;;;;;;;5.57;4.88;;;;;;;38.54;26.67;97028.47;5079761;28;20039;-79
2021/06/19 10:58:31;;;;;;;5.38;4.78;;;;;;;37.99;27.05;97036.63;5067436;28;20024;-79
2021/06/19 11:00:58;;;;;;;5.60;5.07;;;;;;;37.56;28.28;97030.34;5053185;28;20028;-79
2021/06/19 11:03:49;;;;;;;7.07;5.65;;;;;;;37.07;29.82;97036.59;5050560;28;20525;-81
2021/06/19 11:06:38;;;;;;;7.18;4.47;;;;;;;36.96;30.12;97022.50;5056535;28;20174;-79
2021/06/19 11:09:16;;;;;;;6.57;5.05;;;;;;;37.46;30.35;97029.47;5048164;28;20031;-79
2021/06/19 11:11:55;;;;;;;9.13;5.43;;;;;;;37.48;26.96;97032.50;5072679;28;20040;-79
2021/06/19 11:14:39;;;;;;;7.53;4.55;;;;;;;37.72;26.63;97026.09;5067562;28;20032;-79
2021/06/19 11:17:06;;;;;;;10.00;5.75;;;;;;;37.70;26.86;97025.78;5073887;28;20032;-79
2021/06/19 11:19:41;;;;;;;7.00;4.60;;;;;;;37.74;27.88;97027.22;5073915;28;20273;-79
2021/06/19 11:22:35;;;;;;;8.95;4.97;;;;;;;37.95;27.66;97014.22;5070977;28;20623;-78
2021/06/19 11:27:50;;;;;;;7.60;5.18;;;;;;;37.92;26.61;97026.72;5091407;28;20003;-78
2021/06/19 11:30:37;;;;;;;7.03;5.25;;;;;;;37.52;26.75;97020.78;5051266;28;20064;-79
2021/06/19 11:33:21;;;;;;;6.60;4.70;;;;;;;37.11;28.40;97017.50;5081215;28;20538;-78
2021/06/19 11:35:50;;;;;;;8.05;4.55;;;;;;;37.61;29.40;97018.22;5072278;28;20063;-79
2021/06/19 11:38:17;;;;;;;8.75;5.25;;;;;;;37.45;27.63;97016.31;5049099;28;20028;-79
2021/06/19 11:40:43;;;;;;;6.85;5.50;;;;;;;37.63;27.50;97004.97;5054462;28;20055;-78